首页
METAR-TAF:

METAR-TAF

机场 :

勒克瑙, 印度

纬度: 26-45N, 经度: 080-53E, 海拔: 122米

当前天气观测

该预报发布于43分钟前的17:00 UTC
风速4节,风向
温度 34°C
湿度 39%
气压 1002 hPa
能見度: 3000

METAR: VILK 241700Z 35004KT 3000 HZ NSC 34/18 Q1002 NOSIG

时间: 23:13 (17:43 UTC)

预报

该预报发布于43分钟前的17:00 UTC
预报有效从24日的 18点(UTC)到 25日的 03点(UTC)
风速6节,风向西北
能見度: 3000
成为
从 24日的 23点(UTC)到 25日的 01点(UTC)
风速3节,风向西转西北
能見度: 2500

TAF: VILK 241700Z 2418/2503 32006KT 3000 HZ NSC BECMG 2423/2501 29003KT 2500 HZ NSC

超过4000个机场的气象观测和天气预报(METAR&TAF报告)。

可查询的气象台以黄色和红色小点在地图上表示。

将鼠标移到小点上方,可查看气象台名称。

然后点击查看天气观测和预报。

如需切换地图:点击带黑十字的绿色按钮放大地图;点击带横线的绿色按钮缩小地图;或者点击绿色箭头查看邻近地区的地图。


METAR-TAF: